createdAt,value
2018-01-08T00:00:31.643Z,16.60
2018-01-08T00:03:00.687Z,15.77
2018-01-08T00:05:29.615Z,19.80
2018-01-08T00:07:58.000Z,15.73
2018-01-08T00:10:26.480Z,16.97
2018-01-08T00:12:55.345Z,19.37
2018-01-08T00:15:24.468Z,19.63
2018-01-08T00:17:53.483Z,16.83
2018-01-08T00:20:21.787Z,18.13
2018-01-08T00:22:50.180Z,18.00
2018-01-08T00:25:18.663Z,16.70
2018-01-08T00:27:48.204Z,17.33
2018-01-08T00:30:16.576Z,18.80
2018-01-08T00:32:44.988Z,17.43
2018-01-08T00:35:13.911Z,17.90
2018-01-08T00:37:42.288Z,18.83
2018-01-08T00:40:11.157Z,17.10
2018-01-08T00:42:39.499Z,18.60
2018-01-08T00:45:07.877Z,20.40
2018-01-08T00:47:37.046Z,18.40
2018-01-08T00:50:05.982Z,17.83
2018-01-08T00:52:34.369Z,19.07
2018-01-08T00:55:03.332Z,19.03
2018-01-08T00:57:32.609Z,18.93
2018-01-08T01:00:01.623Z,17.07
2018-01-08T01:02:30.691Z,18.53
2018-01-08T01:04:59.856Z,17.70
2018-01-08T01:07:28.882Z,20.33
2018-01-08T01:09:57.995Z,21.17
2018-01-08T01:12:26.796Z,18.53
2018-01-08T01:14:55.344Z,20.60
2018-01-08T01:17:24.384Z,18.90
2018-01-08T01:19:54.291Z,21.07
2018-01-08T01:22:22.645Z,18.70
2018-01-08T01:24:51.783Z,22.13
2018-01-08T01:27:20.087Z,16.40
2018-01-08T01:29:49.088Z,18.40
2018-01-08T01:32:17.404Z,19.67
2018-01-08T01:34:45.735Z,19.00
2018-01-08T01:37:14.903Z,21.20
2018-01-08T01:39:43.235Z,20.80
2018-01-08T01:42:11.641Z,18.70
2018-01-08T01:44:39.980Z,17.63
2018-01-08T01:47:08.751Z,16.03
2018-01-08T01:49:37.884Z,20.47
2018-01-08T01:52:06.992Z,17.60
2018-01-08T01:54:35.917Z,19.43
2018-01-08T01:57:04.223Z,18.47
2018-01-08T01:59:32.697Z,18.47
2018-01-08T02:02:01.769Z,18.67
2018-01-08T02:04:30.653Z,19.97
2018-01-08T02:06:59.044Z,18.07
2018-01-08T02:09:28.050Z,18.90
2018-01-08T02:11:56.349Z,20.17
2018-01-08T02:14:25.448Z,18.50
2018-01-08T02:16:53.751Z,20.57
2018-01-08T02:19:22.089Z,19.90
2018-01-08T02:21:51.128Z,19.67
2018-01-08T02:24:20.152Z,18.20
2018-01-08T02:26:48.477Z,22.60
2018-01-08T02:29:17.142Z,20.37
2018-01-08T02:31:45.447Z,20.07
2018-01-08T02:34:14.824Z,20.33
2018-01-08T02:36:45.691Z,18.90
2018-01-08T02:39:14.600Z,17.47
2018-01-08T02:41:42.985Z,20.97
2018-01-08T02:44:11.355Z,20.80
2018-01-08T02:46:40.527Z,18.80
2018-01-08T02:49:08.836Z,18.53
2018-01-08T02:51:37.769Z,19.90
2018-01-08T02:54:06.828Z,19.30
2018-01-08T02:56:35.188Z,18.53
2018-01-08T02:59:05.247Z,19.43
2018-01-08T03:01:34.950Z,19.70
2018-01-08T03:04:04.869Z,22.07
2018-01-08T03:06:34.783Z,21.13
2018-01-08T03:09:05.527Z,21.43
2018-01-08T03:11:35.432Z,20.00
2018-01-08T03:14:05.344Z,23.00
2018-01-08T03:16:34.145Z,21.87
2018-01-08T03:19:04.000Z,21.17
2018-01-08T03:21:34.555Z,22.40
2018-01-08T03:24:05.859Z,21.87
2018-01-08T03:26:34.176Z,20.13
2018-01-08T03:29:03.216Z,21.67
2018-01-08T03:31:32.273Z,21.83
2018-01-08T03:34:00.593Z,22.27
2018-01-08T03:36:29.736Z,19.83
2018-01-08T03:38:58.808Z,21.83
2018-01-08T03:41:27.180Z,21.30
2018-01-08T03:43:55.641Z,19.43
2018-01-08T03:46:25.287Z,21.13
2018-01-08T03:48:53.636Z,21.73
2018-01-08T03:51:22.107Z,16.90
2018-01-08T03:53:50.864Z,20.37
2018-01-08T03:56:19.177Z,21.60
2018-01-08T03:58:48.220Z,15.30
2018-01-08T04:01:16.616Z,20.60
2018-01-08T04:03:45.645Z,19.73
2018-01-08T04:06:13.996Z,21.80
2018-01-08T04:08:42.299Z,19.33
2018-01-08T04:11:11.320Z,19.83
2018-01-08T04:13:40.527Z,21.23
2018-01-08T04:16:09.027Z,19.80
2018-01-08T04:18:37.716Z,21.10
2018-01-08T04:21:06.141Z,18.50
2018-01-08T04:23:35.115Z,18.70
2018-01-08T04:26:03.429Z,18.97
2018-01-08T04:28:31.844Z,20.10
2018-01-08T04:31:00.798Z,20.23
2018-01-08T04:33:29.889Z,18.97
2018-01-08T04:35:58.313Z,21.30
2018-01-08T04:38:28.105Z,19.17
2018-01-08T04:40:56.480Z,20.90
2018-01-08T04:43:27.105Z,21.90
2018-01-08T04:45:56.165Z,22.03
2018-01-08T04:48:24.572Z,20.23
2018-01-08T04:50:53.040Z,21.20
2018-01-08T04:53:21.356Z,22.40
2018-01-08T04:55:49.664Z,21.27
2018-01-08T04:58:18.500Z,21.00
2018-01-08T05:00:47.432Z,20.67
2018-01-08T05:03:15.753Z,17.47
2018-01-08T05:05:44.131Z,20.33
2018-01-08T05:08:12.488Z,19.00
2018-01-08T05:10:40.796Z,20.40
2018-01-08T05:13:09.432Z,23.23
2018-01-08T05:15:38.089Z,19.00
2018-01-08T05:18:07.085Z,20.33
2018-01-08T05:20:37.087Z,18.27
2018-01-08T05:23:06.012Z,20.17
2018-01-08T05:25:35.156Z,21.47
2018-01-08T05:28:03.535Z,19.00
2018-01-08T05:30:32.337Z,17.83
2018-01-08T05:33:01.190Z,18.40
2018-01-08T05:35:29.992Z,20.23
2018-01-08T05:38:01.261Z,19.43
2018-01-08T05:40:29.852Z,21.13
2018-01-08T05:42:58.165Z,22.80
2018-01-08T05:45:26.475Z,22.07
2018-01-08T05:47:54.836Z,19.53
2018-01-08T05:50:23.616Z,19.27
2018-01-08T05:52:51.919Z,20.93
2018-01-08T05:55:20.323Z,21.77
2018-01-08T05:57:49.318Z,21.43
2018-01-08T06:00:18.225Z,21.70
2018-01-08T06:02:47.545Z,21.57
2018-01-08T06:05:16.616Z,20.93
2018-01-08T06:07:45.648Z,22.67
2018-01-08T06:10:14.241Z,22.43
2018-01-08T06:12:43.736Z,16.43
2018-01-08T06:15:12.049Z,17.13
2018-01-08T06:17:40.380Z,20.57
2018-01-08T06:20:08.738Z,19.17
2018-01-08T06:22:37.756Z,18.70
2018-01-08T06:25:06.878Z,23.70
2018-01-08T06:27:35.275Z,22.83
2018-01-08T06:30:03.604Z,22.60
2018-01-08T06:32:32.582Z,19.13
2018-01-08T06:35:02.116Z,21.03
2018-01-08T06:37:30.688Z,20.50
2018-01-08T06:39:59.049Z,20.17
2018-01-08T06:42:28.175Z,21.90
2018-01-08T06:44:56.987Z,20.00
2018-01-08T06:47:25.432Z,20.83
2018-01-08T06:49:53.788Z,19.97
2018-01-08T06:52:22.865Z,19.90
2018-01-08T06:54:51.175Z,21.90
2018-01-08T06:57:20.230Z,21.47
2018-01-08T06:59:48.541Z,22.10
2018-01-08T07:02:18.547Z,22.00
2018-01-08T07:04:47.530Z,20.77
2018-01-08T07:07:16.734Z,20.80
2018-01-08T07:09:45.823Z,21.10
2018-01-08T07:12:14.868Z,17.87
2018-01-08T07:14:43.870Z,20.87
2018-01-08T07:17:12.180Z,16.53
2018-01-08T07:19:41.396Z,18.30
2018-01-08T07:22:11.256Z,19.37
2018-01-08T07:24:40.264Z,17.97
2018-01-08T07:27:08.644Z,20.13
2018-01-08T07:29:37.664Z,20.83
2018-01-08T07:32:06.210Z,21.40
2018-01-08T07:34:34.516Z,21.87
2018-01-08T07:37:02.835Z,14.83
2018-01-08T07:39:31.696Z,18.63
2018-01-08T07:42:00.027Z,20.73
2018-01-08T07:44:29.024Z,20.47
2018-01-08T07:46:58.087Z,20.27
2018-01-08T07:49:27.161Z,19.33
2018-01-08T07:51:55.845Z,19.70
2018-01-08T07:54:24.640Z,20.63
2018-01-08T07:56:53.568Z,20.53
2018-01-08T07:59:21.967Z,19.00
2018-01-08T08:01:51.024Z,19.50
2018-01-08T08:04:20.045Z,21.10
2018-01-08T08:06:49.123Z,20.60
2018-01-08T08:09:17.989Z,20.93
2018-01-08T08:11:46.772Z,19.53
2018-01-08T08:14:15.088Z,18.13
2018-01-08T08:16:43.836Z,19.87
2018-01-08T08:19:12.191Z,20.00
2018-01-08T08:21:40.499Z,19.80
2018-01-08T08:24:10.017Z,20.23
2018-01-08T08:26:38.344Z,11.20
2018-01-08T08:29:06.930Z,15.50
2018-01-08T08:31:35.690Z,19.57
2018-01-08T08:34:04.260Z,21.50
2018-01-08T08:36:33.384Z,17.40
2018-01-08T08:39:01.723Z,19.63
2018-01-08T08:41:30.741Z,20.57
2018-01-08T08:43:59.048Z,20.43
2018-01-08T08:46:28.328Z,19.80
2018-01-08T08:48:56.944Z,18.53
2018-01-08T08:51:25.529Z,19.90
2018-01-08T08:53:54.652Z,19.80
2018-01-08T08:56:23.724Z,19.00
2018-01-08T08:58:52.035Z,18.63
2018-01-08T09:01:21.188Z,19.00
2018-01-08T09:03:50.191Z,19.67
2018-01-08T09:06:19.292Z,18.13
2018-01-08T09:08:48.400Z,18.37
2018-01-08T09:11:17.439Z,19.70
2018-01-08T09:13:45.804Z,16.40
2018-01-08T09:16:15.028Z,20.50
2018-01-08T09:18:44.070Z,19.70
2018-01-08T09:21:12.407Z,18.57
2018-01-08T09:23:41.176Z,19.00
2018-01-08T09:26:10.355Z,20.37
2018-01-08T09:28:38.709Z,17.57
2018-01-08T09:31:07.912Z,20.70
2018-01-08T09:33:36.797Z,20.67
2018-01-08T09:36:05.564Z,19.40
2018-01-08T09:38:34.244Z,18.80
2018-01-08T09:41:02.554Z,20.50
2018-01-08T09:43:31.636Z,16.17
2018-01-08T09:46:00.786Z,18.30
2018-01-08T09:48:29.093Z,15.43
2018-01-08T09:50:58.049Z,17.10
2018-01-08T09:53:26.529Z,16.80
2018-01-08T09:55:55.454Z,17.27
2018-01-08T09:58:23.774Z,17.57
2018-01-08T10:00:52.880Z,16.40
2018-01-08T10:03:39.484Z,20.20
2018-01-08T10:06:26.264Z,18.33
2018-01-08T10:09:12.200Z,17.30
2018-01-08T10:11:58.183Z,18.83
2018-01-08T10:14:45.193Z,15.00
2018-01-08T10:17:31.020Z,18.23
2018-01-08T10:19:59.499Z,19.00
2018-01-08T10:22:28.170Z,17.17
2018-01-08T10:24:57.116Z,19.87
2018-01-08T10:27:26.207Z,17.90
2018-01-08T10:29:55.250Z,18.80
2018-01-08T10:32:23.563Z,18.17
2018-01-08T10:34:51.940Z,17.47
2018-01-08T10:37:20.885Z,18.13
2018-01-08T10:39:49.789Z,15.27
2018-01-08T10:42:24.760Z,21.23
2018-01-08T10:44:59.855Z,19.67
2018-01-08T10:47:33.656Z,19.17
2018-01-08T10:50:07.368Z,19.47
2018-01-08T10:52:35.916Z,17.80
2018-01-08T10:55:05.224Z,17.63
2018-01-08T10:57:33.533Z,17.63
2018-01-08T11:00:02.504Z,18.27
2018-01-08T11:02:37.044Z,16.30
2018-01-08T11:05:05.685Z,17.53
2018-01-08T11:07:34.387Z,16.50
2018-01-08T11:10:02.887Z,17.80
2018-01-08T11:12:31.253Z,18.30
2018-01-08T11:15:00.269Z,17.10
2018-01-08T11:17:30.060Z,16.20
2018-01-08T11:19:58.510Z,17.83
2018-01-08T11:22:27.591Z,17.40
2018-01-08T11:24:56.703Z,16.57
2018-01-08T11:27:31.380Z,18.13
2018-01-08T11:29:59.698Z,18.50
2018-01-08T11:32:28.191Z,15.80
2018-01-08T11:34:56.889Z,16.53
2018-01-08T11:37:26.440Z,15.43
2018-01-08T11:39:55.176Z,18.60
2018-01-08T11:42:23.559Z,17.30
2018-01-08T11:44:52.036Z,16.90
2018-01-08T11:47:20.982Z,17.67
2018-01-08T11:49:49.444Z,17.30
2018-01-08T11:52:17.784Z,15.90
2018-01-08T11:54:46.772Z,17.20
2018-01-08T11:57:15.871Z,15.57
2018-01-08T11:59:44.188Z,16.43
2018-01-08T12:02:13.120Z,16.27
2018-01-08T12:04:41.492Z,17.87
2018-01-08T12:07:10.663Z,16.13
2018-01-08T12:09:39.077Z,14.27
2018-01-08T12:12:08.002Z,14.37
2018-01-08T12:14:36.929Z,16.67
2018-01-08T12:17:05.246Z,15.90
2018-01-08T12:19:34.353Z,16.07
2018-01-08T12:22:03.567Z,17.00
2018-01-08T12:24:32.493Z,16.47
2018-01-08T12:27:00.876Z,12.90
2018-01-08T12:29:29.397Z,14.73
2018-01-08T12:31:58.068Z,14.60
2018-01-08T12:34:26.473Z,15.50
2018-01-08T12:36:55.472Z,13.23
2018-01-08T12:39:23.807Z,15.00
2018-01-08T12:41:52.168Z,16.77
2018-01-08T12:44:21.175Z,15.87
2018-01-08T12:46:50.256Z,15.43
2018-01-08T12:49:19.407Z,12.37
2018-01-08T12:51:47.707Z,14.90
2018-01-08T12:54:16.746Z,15.73
2018-01-08T12:56:45.204Z,15.03
2018-01-08T12:59:13.669Z,16.03
2018-01-08T13:01:42.004Z,15.30
2018-01-08T13:04:10.825Z,13.77
2018-01-08T13:06:39.739Z,16.33
2018-01-08T13:09:08.058Z,17.67
2018-01-08T13:11:37.274Z,14.73
2018-01-08T13:14:06.199Z,15.87
2018-01-08T13:16:34.528Z,15.13
2018-01-08T13:19:02.896Z,14.73
2018-01-08T13:21:36.632Z,11.87
2018-01-08T13:24:05.172Z,14.43
2018-01-08T13:26:34.131Z,16.00
2018-01-08T13:29:02.568Z,12.87
2018-01-08T13:31:31.675Z,11.73
2018-01-08T13:34:00.376Z,15.67
2018-01-08T13:36:28.701Z,16.37
2018-01-08T13:38:57.234Z,11.63
2018-01-08T13:41:25.830Z,14.43
2018-01-08T13:43:54.144Z,13.93
2018-01-08T13:46:22.504Z,14.80
2018-01-08T13:48:52.074Z,15.47
2018-01-08T13:51:20.380Z,15.60
2018-01-08T13:53:49.275Z,15.63
2018-01-08T13:56:17.720Z,17.50
2018-01-08T13:58:46.855Z,14.90
2018-01-08T14:01:15.797Z,11.20
2018-01-08T14:03:45.044Z,12.67
2018-01-08T14:06:13.404Z,15.00
2018-01-08T14:08:41.732Z,16.70
2018-01-08T14:11:10.588Z,16.67
2018-01-08T14:13:39.752Z,17.67
2018-01-08T14:16:08.556Z,14.87
2018-01-08T14:18:37.785Z,16.43
2018-01-08T14:21:06.144Z,15.30
2018-01-08T14:23:34.939Z,13.77
2018-01-08T14:26:03.633Z,16.80
2018-01-08T14:28:32.013Z,16.00
2018-01-08T14:31:00.328Z,15.53
2018-01-08T14:33:28.835Z,14.33
2018-01-08T14:35:58.343Z,15.63
2018-01-08T14:38:27.268Z,12.60
2018-01-08T14:40:56.417Z,13.67
2018-01-08T14:43:25.547Z,12.80
2018-01-08T14:45:54.559Z,14.63
2018-01-08T14:48:22.876Z,22.43
2018-01-08T14:50:52.147Z,13.23
2018-01-08T14:53:21.214Z,20.50
2018-01-08T14:55:50.106Z,16.73
2018-01-08T14:58:19.376Z,15.27
2018-01-08T15:00:48.519Z,13.53
2018-01-08T15:03:16.908Z,14.27
2018-01-08T15:05:46.158Z,17.27
2018-01-08T15:08:15.826Z,10.67
2018-01-08T15:10:44.339Z,14.53
2018-01-08T15:13:12.968Z,15.10
2018-01-08T15:15:41.333Z,15.00
2018-01-08T15:18:10.217Z,14.33
2018-01-08T15:20:38.617Z,16.57
2018-01-08T15:23:07.015Z,14.10
2018-01-08T15:25:35.464Z,16.57
2018-01-08T15:28:04.537Z,13.90
2018-01-08T15:30:32.880Z,15.10
2018-01-08T15:33:01.271Z,12.60
2018-01-08T15:35:29.922Z,12.57
2018-01-08T15:37:58.272Z,13.43
2018-01-08T15:40:27.285Z,14.53
2018-01-08T15:42:56.448Z,16.87
2018-01-08T15:45:25.497Z,14.90
2018-01-08T15:47:54.635Z,13.37
2018-01-08T15:50:23.717Z,13.83
2018-01-08T15:52:52.033Z,13.57
2018-01-08T15:55:21.204Z,14.47
2018-01-08T15:57:50.555Z,14.93
2018-01-08T16:00:20.143Z,13.33
2018-01-08T16:02:49.360Z,13.97
2018-01-08T16:05:18.468Z,16.43
2018-01-08T16:07:47.580Z,13.93
2018-01-08T16:10:16.228Z,13.90
2018-01-08T16:12:45.603Z,14.77
2018-01-08T16:15:14.770Z,14.43
2018-01-08T16:17:43.924Z,14.20
2018-01-08T16:20:12.449Z,14.30
2018-01-08T16:22:41.272Z,13.87
2018-01-08T16:25:10.359Z,14.77
2018-01-08T16:27:39.464Z,13.70
2018-01-08T16:30:08.448Z,13.27
2018-01-08T16:32:37.649Z,15.63
2018-01-08T16:35:06.744Z,15.13
2018-01-08T16:37:35.788Z,14.00
2018-01-08T16:40:04.436Z,13.93
2018-01-08T16:42:34.491Z,14.97
2018-01-08T16:45:03.537Z,14.13
2018-01-08T16:47:31.915Z,13.80
2018-01-08T16:50:07.492Z,15.00
2018-01-08T16:52:35.996Z,14.23
2018-01-08T16:55:06.060Z,13.97
2018-01-08T16:57:34.953Z,14.93
2018-01-08T17:00:03.340Z,11.90
2018-01-08T17:02:32.480Z,12.97
2018-01-08T17:05:01.176Z,13.40
2018-01-08T17:07:30.597Z,12.60
2018-01-08T17:10:00.628Z,12.80
2018-01-08T17:12:29.608Z,14.00
2018-01-08T17:15:05.071Z,13.27
2018-01-08T17:17:33.578Z,14.40
2018-01-08T17:20:02.798Z,14.80
2018-01-08T17:22:32.502Z,13.20
2018-01-08T17:25:01.266Z,14.70
2018-01-08T17:27:30.727Z,13.00
2018-01-08T17:29:59.964Z,13.03
2018-01-08T17:32:29.068Z,13.63
2018-01-08T17:34:58.000Z,13.50
2018-01-08T17:37:26.759Z,13.83
2018-01-08T17:39:55.474Z,15.00
2018-01-08T17:42:24.485Z,14.00
2018-01-08T17:44:53.392Z,12.80
2018-01-08T17:47:21.898Z,12.90
2018-01-08T17:49:50.227Z,12.67
2018-01-08T17:52:19.369Z,12.30
2018-01-08T17:54:48.452Z,14.03
2018-01-08T17:57:17.577Z,13.13
2018-01-08T17:59:45.946Z,11.13
2018-01-08T18:02:14.967Z,8.50
2018-01-08T18:04:43.550Z,13.73
2018-01-08T18:07:11.919Z,11.53
2018-01-08T18:09:40.293Z,14.00
2018-01-08T18:12:09.770Z,12.93
2018-01-08T18:14:38.868Z,13.60
2018-01-08T18:17:07.188Z,12.77
2018-01-08T18:19:36.011Z,14.67
2018-01-08T18:22:05.057Z,13.93
2018-01-08T18:24:33.414Z,15.40
2018-01-08T18:27:04.253Z,14.00
2018-01-08T18:29:32.824Z,13.40
2018-01-08T18:32:01.772Z,14.67
2018-01-08T18:34:30.705Z,14.37
2018-01-08T18:36:59.684Z,15.77
2018-01-08T18:39:28.960Z,15.87
2018-01-08T18:41:58.097Z,17.03
2018-01-08T18:44:26.985Z,15.63
2018-01-08T18:46:54.646Z,16.13
2018-01-08T18:49:23.544Z,14.17
2018-01-08T18:51:52.391Z,15.33
2018-01-08T18:54:20.795Z,15.73
2018-01-08T18:56:49.498Z,15.13
2018-01-08T18:59:17.811Z,15.50
2018-01-08T19:01:46.262Z,13.33
2018-01-08T19:04:14.772Z,14.10
2018-01-08T19:06:43.090Z,14.67
2018-01-08T19:09:12.097Z,13.67
2018-01-08T19:11:41.326Z,15.60
2018-01-08T19:14:10.399Z,12.83
2018-01-08T19:16:39.638Z,14.00
2018-01-08T19:19:08.747Z,15.90
2018-01-08T19:21:37.630Z,15.60
2018-01-08T19:24:06.004Z,15.37
2018-01-08T19:26:34.876Z,15.73
2018-01-08T19:29:05.072Z,16.40
2018-01-08T19:31:34.218Z,14.90
2018-01-08T19:34:03.314Z,16.20
2018-01-08T19:36:32.237Z,15.03
2018-01-08T19:39:00.763Z,16.43
2018-01-08T19:41:29.982Z,15.03
2018-01-08T19:43:58.880Z,14.80
2018-01-08T19:46:27.940Z,11.67
2018-01-08T19:48:58.567Z,17.30
2018-01-08T19:51:27.587Z,17.67
2018-01-08T19:53:55.957Z,15.50
2018-01-08T19:56:25.092Z,16.90
2018-01-08T19:58:53.584Z,16.70
2018-01-08T20:01:22.407Z,18.93
2018-01-08T20:03:50.805Z,18.37
2018-01-08T20:06:19.164Z,19.03
2018-01-08T20:08:47.702Z,17.03
2018-01-08T20:13:52.215Z,20.30
2018-01-08T20:16:20.919Z,20.27
2018-01-08T20:18:49.339Z,19.27
2018-01-08T20:21:18.274Z,17.40
2018-01-08T20:23:46.704Z,17.60
2018-01-08T20:26:16.784Z,20.40
2018-01-08T20:28:46.027Z,19.53
2018-01-08T20:31:14.867Z,19.67
2018-01-08T20:33:44.245Z,16.87
2018-01-08T20:36:12.952Z,19.47
2018-01-08T20:38:41.323Z,20.67
2018-01-08T20:41:10.139Z,20.10
2018-01-08T20:43:38.804Z,21.57
2018-01-08T20:46:07.147Z,20.57
2018-01-08T20:48:36.050Z,20.17
2018-01-08T20:51:05.179Z,19.57
2018-01-08T20:53:34.923Z,20.13
2018-01-08T20:56:03.305Z,22.53
2018-01-08T20:58:31.808Z,20.80
2018-01-08T21:01:00.178Z,19.47
2018-01-08T21:03:28.792Z,20.87
2018-01-08T21:05:57.227Z,22.93
2018-01-08T21:08:25.591Z,21.67
2018-01-08T21:10:54.796Z,23.00
2018-01-08T21:13:23.145Z,21.53
2018-01-08T21:15:51.857Z,22.50
2018-01-08T21:18:20.315Z,20.97
2018-01-08T21:20:48.911Z,21.90
2018-01-08T21:23:17.257Z,22.77
2018-01-08T21:25:46.788Z,20.97
2018-01-08T21:28:15.819Z,24.70
2018-01-08T21:30:44.180Z,21.00
2018-01-08T21:33:13.335Z,20.57
2018-01-08T21:35:42.326Z,20.20
2018-01-08T21:38:11.420Z,22.00
2018-01-08T21:43:20.271Z,21.60
2018-01-08T21:45:49.379Z,21.63
2018-01-08T21:48:19.247Z,21.10
2018-01-08T21:50:48.419Z,20.93
2018-01-08T21:53:17.504Z,21.03
2018-01-08T21:55:45.876Z,22.90
2018-01-08T21:58:14.725Z,22.33
2018-01-08T22:00:44.721Z,23.07
2018-01-08T22:03:13.157Z,20.40
2018-01-08T22:05:41.654Z,23.80
2018-01-08T22:08:10.379Z,23.37
2018-01-08T22:10:39.900Z,26.17
2018-01-08T22:13:08.982Z,24.40
2018-01-08T22:15:37.995Z,23.07
2018-01-08T22:18:07.935Z,22.43
2018-01-08T22:20:36.662Z,22.97
2018-01-08T22:23:05.756Z,22.93
2018-01-08T22:25:34.270Z,24.40
2018-01-08T22:28:03.449Z,25.50
2018-01-08T22:30:33.093Z,21.73
2018-01-08T22:33:01.582Z,23.00
2018-01-08T22:35:30.340Z,24.20
2018-01-08T22:37:58.775Z,25.20
2018-01-08T22:40:27.889Z,24.57
2018-01-08T22:42:56.453Z,24.50
2018-01-08T22:45:24.767Z,22.70
2018-01-08T22:47:53.638Z,22.63
2018-01-08T22:50:22.531Z,22.77
2018-01-08T22:52:51.516Z,25.47
2018-01-08T22:55:19.979Z,24.07
2018-01-08T22:57:48.424Z,25.33
2018-01-08T23:00:16.889Z,26.37
2018-01-08T23:02:46.550Z,23.93
2018-01-08T23:05:16.319Z,21.57
2018-01-08T23:07:45.433Z,24.17
2018-01-08T23:10:14.640Z,21.53
2018-01-08T23:12:42.989Z,22.20
2018-01-08T23:15:11.852Z,19.77
2018-01-08T23:17:40.264Z,21.10
2018-01-08T23:20:08.578Z,21.63
2018-01-08T23:22:37.975Z,22.57
2018-01-08T23:25:06.417Z,22.47
2018-01-08T23:27:35.677Z,19.90
2018-01-08T23:30:04.850Z,18.67
2018-01-08T23:32:34.102Z,19.80
2018-01-08T23:35:02.953Z,21.37
2018-01-08T23:37:31.375Z,18.80
2018-01-08T23:40:00.827Z,19.60
2018-01-08T23:42:29.174Z,17.50
2018-01-08T23:44:57.672Z,19.40
2018-01-08T23:47:26.081Z,17.20
2018-01-08T23:49:54.393Z,17.67
2018-01-08T23:52:22.935Z,17.33
2018-01-08T23:54:51.676Z,18.30
2018-01-08T23:57:20.084Z,17.10
2018-01-08T23:59:49.041Z,17.43
